Terminal Aerodrome Forecast
Issued by NWS

Home | Current Version | Previous Version | Text Only | Print | Product List | Glossary On
Versions: 1 2 3 4 5 6 7 8 9 10 11 12 13 14 15 16 17 18 19 20 21 22 23 24 25 26 27 28 29 30 31 32
000
FTUS45 KGJT 010110 AAA
TAFMTJ
TAF AMD
KMTJ 010110Z 0101/0124 15010KT P6SM VCSH BKN090 OVC150
      TEMPO 0101/0103 VRB12G20KT P6SM -SHRA OVC070
     FM010300 14008KT P6SM SCT110 BKN150
     FM011600 30008KT P6SM FEW120 SCT150
     FM012100 33010KT P6SM VCTS SCT100CB BKN150=

USA.gov is the U.S. government's official web portal to all federal, state and local government web resources and services.